Latest Coastal Weather Observations for Neptune Island

IDT60701

Issued at 5:22 pm EST Saturday 23 September 2017 (issued every 10 minutes, with the page automatically refreshed every 10 minutes)

About coastal observations | Map of coastal stations | Coastal observations for TAS | Marine services | Other Formats
Station Details ID: 018115 Name: NEPTUNE ISLAND Lat: -35.34 Lon: 136.12 Height: 32.0 m
Data from the previous 72 hours. | See also: Recent months at Neptune Island
Date/Time
EST
Temp
°C
Wind Pressure Rain since
9am
mm
Weather Cloud Vis
km
Sea
Height
m
Swell
Dir  Spd
kts
Gust
kts
hPa Trend Height
m
Period
s
Dir
23/05:00pm 16.1 NW 32 37 999.7 - 0.0 - - - - - - -
23/04:30pm 16.2 NW 29 36 999.4 - 0.0 - - - - - - -
23/04:00pm 16.2 NW 27 33 999.3 - 0.0 - - - - - - -
23/03:33pm 16.3 NW 29 39 999.0 - 0.0 - - - - - - -
23/03:30pm 16.5 WNW 29 35 999.1 - 0.0 - - - - - - -
23/03:00pm 16.2 WNW 30 36 998.9 - 0.0 - - - - - - -
23/02:44pm 16.3 WNW 28 38 998.9 - 0.0 - - - - - - -
23/02:30pm 16.2 WNW 30 37 998.8 - 0.0 - - - - - - -
23/02:00pm 16.1 WNW 32 38 998.6 - 0.0 - - - - - - -
23/01:49pm 16.1 WNW 30 40 998.6 - 0.0 - - - - - - -
23/01:30pm 16.3 WNW 31 37 998.3 - 0.0 - - - - - - -
23/01:00pm 16.2 WNW 33 39 998.1 - 0.0 - - - - - - -
23/12:30pm 16.2 WNW 35 41 997.7 - 0.0 - - - - - - -
23/12:00pm 16.6 NW 36 42 997.2 - 0.0 - - - - - - -
23/11:30am 16.9 WNW 33 39 996.9 - 0.0 - - - - - - -
23/11:19am 16.6 WNW 28 41 996.7 - 0.0 - - - - - - -
23/11:00am 16.9 WNW 31 37 996.8 - 0.0 - - - - - - -
23/10:30am 16.9 NW 29 39 996.5 - 0.0 - - - - - - -
23/10:28am 16.9 NW 29 37 996.5 - 0.0 - - - - - - -
23/10:00am 16.8 NW 21 25 996.8 - 0.0 - - - - - - -
23/09:30am 16.4 NW 21 26 996.5 - 1.0 - - - - - - -
23/09:00am 15.9 NNW 14 18 996.0 - 1.0 - - - - - - -
23/08:30am 15.3 N 11 12 995.8 - 1.0 - - - - - - -
23/08:00am 15.0 NNW 14 19 995.8 - 1.0 - - - - - - -
23/07:30am 15.1 N 14 19 996.2 - 1.0 - - - - - - -
23/07:00am 14.8 N 10 16 995.8 - 1.0 - - - - - - -
23/06:30am 14.7 NNE 11 14 995.3 - 0.2 - - - - - - -
23/06:00am 14.7 NE 9 11 995.1 - 0.2 - - - - - - -
23/05:30am 14.6 NE 8 9 995.5 - 0.2 - - - - - - -
23/05:00am 14.6 ENE 9 10 995.5 - 0.2 - - - - - - -
23/04:30am 14.5 E 7 8 996.3 - 0.2 - - - - - - -
23/04:00am 14.3 SE 6 8 996.9 - 0.2 - - - - - - -
23/03:30am 14.4 SSE 7 9 996.6 - 0.2 - - - - - - -
23/03:00am 14.7 S 5 8 997.6 - 0.2 - - - - - - -
23/02:30am 14.9 S 7 9 999.3 - 0.2 - - - - - - -
23/02:00am 14.7 SE 7 9 998.4 - 0.2 - - - - - - -
23/01:30am 14.8 SSW 5 8 999.9 - 0.2 - - - - - - -
23/01:00am 15.1 SSW 7 11 1000.4 - 0.2 - - - - - - -
23/12:30am 15.2 SW 9 15 1000.5 - 0.2 Recent precip. - - - - - -
23/12:25am 15.3 S 8 15 1001.6 - 0.2 - - - - - - -
23/12:08am 15.1 SW 11 17 999.6 - 0.0 - - - - - - -
23/12:00am 15.2 WSW 14 21 1001.8 - 0.0 - - - - - - -
 
Date/Time
EST
Temp
°C
Wind Pressure Rain since
9am
mm
Weather Cloud Vis
km
Sea
Height
m
Swell
Dir  Spd
kts
Gust
kts
hPa Trend Height
m
Period
s
Dir
22/11:56pm 15.3 S 10 21 1002.1 - 0.0 - - - - - - -
22/11:53pm 15.2 ESE 7 11 1000.6 - 0.0 - - - - - - -
22/11:30pm 15.0 E 9 11 998.3 - 0.0 - - - - - - -
22/11:00pm 14.9 E 10 13 998.8 - 0.0 - - - - - - -
22/10:52pm 15.0 ENE 10 11 999.6 - 0.0 - - - - - - -
22/10:30pm 14.8 NW 4 5 1001.7 - 0.0 - - - - - - -
22/10:00pm 15.3 W 6 7 1002.7 - 0.0 - - - - - - -
22/09:30pm 15.5 W 7 9 1003.1 - 0.0 - - - - - - -
22/09:00pm 15.5 W 11 13 1002.5 - 0.0 - - - - - - -
22/08:30pm 15.7 W 14 15 1002.3 - 0.0 - - - - - - -
22/08:00pm 15.7 WNW 7 9 1001.7 - 0.0 - - - - - - -
22/07:30pm 15.8 WNW 9 11 1001.3 - 0.0 - - - - - - -
22/07:00pm 16.0 WNW 11 13 1000.9 - 0.0 - - - - - - -
22/06:30pm 16.4 WNW 11 13 1001.0 - 0.0 - - - - - - -
22/06:00pm 17.1 NW 9 11 1001.2 - 0.0 - - - - - - -
22/05:30pm 17.5 NW 11 13 1001.1 - 0.0 - - - - - - -
22/05:00pm 18.0 NW 13 16 1001.0 - 0.0 - - - - - - -
22/04:30pm 18.3 NW 13 16 1001.2 - 0.0 - - - - - - -
22/04:00pm 18.5 NW 14 16 1001.2 - 0.0 - - - - - - -
22/03:30pm 18.6 NW 15 18 1001.4 - 0.0 - - - - - - -
22/03:00pm 19.5 NNW 17 20 1001.1 - 0.0 - - - - - - -
22/02:30pm 19.0 NNW 19 21 1001.2 - 0.0 - - - - - - -
22/02:00pm 19.8 NW 23 28 1001.5 - 0.0 - - - - - - -
22/01:30pm 19.4 NW 29 35 1001.6 - 0.0 - - - - - - -
22/01:24pm 19.7 NW 24 35 1001.6 - 0.0 - - - - - - -
22/01:17pm 19.3 NW 15 25 1001.8 - 0.0 - - - - - - -
22/01:00pm 19.2 NNW 14 19 1002.4 - 0.0 - - - - - - -
22/12:30pm 18.6 NNE 16 17 1001.7 - 0.0 - - - - - - -
22/12:00pm 17.9 NNE 17 19 1002.0 - 0.0 - - - - - - -
22/11:30am 17.9 NNE 17 19 1002.0 - 0.0 - - - - - - -
22/11:00am 18.2 NNE 19 22 1002.3 - 0.0 - - - - - - -
22/10:30am 17.5 NNE 21 23 1002.6 - 0.0 - - - - - - -
22/10:00am 16.2 NNE 22 25 1002.8 - 0.0 - - - - - - -
22/09:30am 16.8 NNE 21 24 1003.1 - 0.0 - - - - - - -
22/09:00am 16.4 NNE 21 24 1003.4 - 0.0 - - - - - - -
22/08:30am 15.8 NNE 22 25 1003.5 - 0.0 - - - - - - -
22/08:00am 15.2 NNE 23 26 1003.6 - 0.0 - - - - - - -
22/07:30am 14.7 NNE 21 24 1003.9 - 0.0 - - - - - - -
22/07:00am 14.4 NNE 23 27 1003.7 - 0.0 - - - - - - -
22/06:30am 14.2 NNE 23 26 1003.7 - 0.0 - - - - - - -
22/06:00am 14.1 NNE 22 26 1004.1 - 0.0 - - - - - - -
22/05:30am 14.1 NNE 22 24 1004.1 - 0.0 - - - - - - -
22/05:00am 14.0 NNE 21 24 1004.2 - 0.0 - - - - - - -
22/04:30am 13.8 NNE 20 24 1004.6 - 0.0 - - - - - - -
22/04:00am 13.7 NE 23 26 1004.6 - 0.0 - - - - - - -
22/03:30am 13.7 NE 19 24 1005.1 - 0.0 - - - - - - -
22/03:00am 13.8 NE 18 22 1005.8 - 0.0 - - - - - - -
22/02:30am 13.6 NE 15 21 1006.5 - 0.0 - - - - - - -
22/02:00am 13.6 NE 13 17 1007.2 - 0.0 - - - - - - -
22/01:30am 13.6 NE 12 15 1007.9 - 0.0 - - - - - - -
22/01:00am 13.5 NE 11 15 1008.5 - 0.0 - - - - - - -
22/12:30am 13.4 ENE 11 14 1008.8 - 0.0 - - - - - - -
22/12:00am 13.2 ENE 9 12 1009.1 - 0.0 - - - - - - -
 
Date/Time
EST
Temp
°C
Wind Pressure Rain since
9am
mm
Weather Cloud Vis
km
Sea
Height
m
Swell
Dir  Spd
kts
Gust
kts
hPa Trend Height
m
Period
s
Dir
21/11:30pm 13.3 ENE 9 11 1009.5 - 0.0 - - - - - - -
21/11:00pm 13.2 E 8 10 1009.9 - 0.0 - - - - - - -
21/10:30pm 12.7 E 6 7 1010.5 - 0.0 - - - - - - -
21/10:00pm 12.7 E 4 5 1010.7 - 0.0 - - - - - - -
21/09:30pm 12.9 CALM 0 0 1011.0 - 0.0 - - - - - - -
21/09:00pm 12.8 ESE 3 4 1010.8 - 0.0 - - - - - - -
21/08:30pm 13.0 SE 4 6 1010.6 - 0.0 - - - - - - -
21/08:00pm 13.3 S 4 5 1010.4 - 0.0 - - - - - - -
21/07:30pm 13.2 SSE 4 5 1010.1 - 0.0 - - - - - - -
21/07:00pm 14.0 SW 6 7 1010.3 - 0.0 - - - - - - -
21/06:30pm 14.3 SSW 5 6 1009.8 - 0.0 - - - - - - -
21/06:00pm 15.0 SW 5 6 1009.8 - 0.0 - - - - - - -
21/05:30pm 15.3 WSW 5 7 1009.8 - 0.0 - - - - - - -
21/05:00pm 15.3 SW 4 6 1009.7 - 0.0 - - - - - - -
21/04:30pm 15.6 SW 4 5 1009.6 - 0.0 - - - - - - -
21/04:00pm 15.9 WSW 6 8 1009.9 - 0.0 - - - - - - -
21/03:30pm 15.9 WSW 8 11 1010.1 - 0.0 - - - - - - -
21/03:00pm 15.7 SW 8 9 1010.2 - 0.0 - - - - - - -
21/02:30pm 15.6 WSW 7 8 1010.1 - 0.0 - - - - - - -
21/02:00pm 15.3 WSW 6 8 1010.2 - 0.0 - - - - - - -
21/01:30pm 16.0 WSW 7 8 1010.7 - 0.0 - - - - - - -
21/01:00pm 15.9 SW 7 9 1010.8 - 0.0 - - - - - - -
21/12:30pm 15.5 WSW 6 8 1010.9 - 0.0 - - - - - - -
21/12:00pm 15.6 WSW 8 10 1011.3 - 0.0 - - - - - - -
21/11:30am 15.3 WSW 9 11 1011.4 - 0.0 - - - - - - -
21/11:00am 15.1 WSW 10 12 1011.2 - 0.0 - - - - - - -
21/10:30am 15.0 SW 11 13 1011.3 - 0.0 - - - - - - -
21/10:00am 14.7 SW 11 12 1010.9 - 0.0 - - - - - - -
21/09:30am 14.6 SW 10 13 1010.7 - 0.0 - - - - - - -
21/09:00am 14.2 SW 12 15 1010.5 - 0.0 - - - - - - -
21/08:30am 13.7 SW 13 15 1010.2 - 0.0 - - - - - - -
21/08:00am 13.6 SW 14 16 1010.3 - 0.0 - - - - - - -
21/07:30am 13.3 WSW 13 16 1010.3 - 0.0 - - - - - - -
21/07:00am 13.3 SW 16 19 1009.8 - 0.0 - - - - - - -
21/06:30am 13.5 SW 15 17 1009.6 - 0.0 - - - - - - -
21/06:00am 13.6 SW 13 16 1009.2 - 0.0 - - - - - - -
21/05:30am 13.8 SW 15 18 1008.9 - 0.0 - - - - - - -
21/05:00am 13.9 SW 16 19 1008.5 - 0.0 - - - - - - -
21/04:30am 14.2 SW 15 19 1008.3 - 0.0 - - - - - - -
21/04:00am 14.3 SW 16 20 1007.7 - 0.0 - - - - - - -
21/03:30am 14.3 SW 14 18 1007.7 - 0.0 - - - - - - -
21/03:00am 14.6 WSW 14 17 1007.7 - 0.0 - - - - - - -
21/02:30am 14.6 WSW 21 24 1007.6 - 0.0 - - - - - - -
21/02:00am 15.0 W 13 17 1007.7 - 0.0 - - - - - - -
21/01:30am 15.2 W 15 17 1007.5 - 0.0 - - - - - - -
21/01:00am 15.4 W 15 19 1007.5 - 0.0 - - - - - - -
21/12:30am 15.8 W 11 13 1007.2 - 0.0 - - - - - - -
21/12:00am 16.1 W 9 11 1007.2 - 0.0 - - - - - - -
 
Date/Time
EST
Temp
°C
Wind Pressure Rain since
9am
mm
Weather Cloud Vis
km
Sea
Height
m
Swell
Dir  Spd
kts
Gust
kts
hPa Trend Height
m
Period
s
Dir
20/11:30pm 16.3 WNW 10 11 1007.8 - 0.0 - - - - - - -
20/11:00pm 16.6 WNW 10 11 1007.6 - 0.0 - - - - - - -
20/10:30pm 17.5 WNW 13 15 1007.7 - 0.0 - - - - - - -
20/10:10pm 16.7 NW 17 27 1007.8 - 0.0 - - - - - - -
20/10:00pm 16.5 NNE 18 21 1006.5 - 0.0 - - - - - - -
20/09:30pm 16.0 NNE 14 16 1007.2 - 0.0 - - - - - - -
20/09:00pm 15.7 NNE 13 14 1007.4 - 0.0 - - - - - - -
20/08:30pm 15.8 NNE 13 14 1007.5 - 0.0 - - - - - - -
20/08:00pm 15.9 NNE 17 22 1007.5 - 0.0 - - - - - - -
20/07:30pm 15.7 NNE 20 22 1007.0 - 0.0 - - - - - - -
20/07:00pm 15.6 NE 22 25 1006.9 - 0.0 - - - - - - -
20/06:30pm 15.8 NE 22 25 1007.0 - 0.0 - - - - - - -
20/06:00pm 16.0 NE 20 22 1007.9 - 0.0 - - - - - - -

Other Formats:

Comma delimited format used in spreadsheet applications
http://www.bom.gov.au/fwo/IDT60701/IDT60701.94804.axf

JavaScript Object Notation format (JSON) in row-major order
http://www.bom.gov.au/fwo/IDT60701/IDT60701.94804.json